CheckWX is a tool to help pilots better visualize weather data.  It is not intended as a substitute for an official pre-flight weather briefing.

07:48:56 UTC

PAFE METAR
Kake Airport
Kake, Alaska, USA
Current

53 mins ago

PAFE 280656Z AUTO 06006KT 10SM CLR 07/04 A3014 RMK AO2 SLP219 T00720039 $
Observed
May-28 @ 06:56 UTC
Wind
  • 060° at 6 KTS
Visibility
Flight Rules
VFR
Cloud Levels
  • Clear skies
Temperature
C / 45°F
Dewpoint
C / 39°F
Humidity
81%
Altimeter
30.14" Hg
Pressure
1020.62 hPa
Previous

2 hours ago

PAFE 280556Z AUTO 06005KT 10SM CLR 09/05 A3015 RMK AO2 SLP223 T00940050 10144 20089 56009 $
Observed
May-28 @ 05:56 UTC
Wind
  • 060° at 5 KTS
Visibility
Flight Rules
VFR
Cloud Levels
  • Clear skies
Temperature
C / 48°F
Dewpoint
C / 41°F
Humidity
76%
Altimeter
30.15" Hg
Pressure
1021.02 hPa
Previous

3 hours ago

PAFE 280456Z AUTO 10003KT 10SM CLR 12/04 A3016 RMK AO2 SLP224 T01170039 $
Observed
May-28 @ 04:56 UTC
Wind
  • 100° at 3 KTS
Visibility
Flight Rules
VFR
Cloud Levels
  • Clear skies
Temperature
12°C / 54°F
Dewpoint
C / 39°F
Humidity
58%
Altimeter
30.16" Hg
Pressure
1021.32 hPa